sensor_id;sensor_type;location;lat;lon;timestamp;pressure;altitude;pressure_sealevel;temperature;humidity
21129;BME280;10722;51.910;8.352;2023-08-30T00:01:27;100149.97;;;14.11;100.00
21129;BME280;10722;51.910;8.352;2023-08-30T00:04:13;100137.88;;;14.01;100.00
21129;BME280;10722;51.910;8.352;2023-08-30T00:06:58;100137.88;;;13.98;100.00
21129;BME280;10722;51.910;8.352;2023-08-30T00:09:43;100142.16;;;14.06;100.00
21129;BME280;10722;51.910;8.352;2023-08-30T00:12:28;100143.06;;;14.05;100.00
21129;BME280;10722;51.910;8.352;2023-08-30T00:15:13;100143.00;;;14.10;100.00
21129;BME280;10722;51.910;8.352;2023-08-30T00:17:58;100140.47;;;14.02;100.00
21129;BME280;10722;51.910;8.352;2023-08-30T00:20:44;100132.75;;;13.84;100.00
21129;BME280;10722;51.910;8.352;2023-08-30T00:23:29;100135.31;;;13.95;100.00
21129;BME280;10722;51.910;8.352;2023-08-30T00:26:14;100135.31;;;13.93;100.00
21129;BME280;10722;51.910;8.352;2023-08-30T00:28:59;100135.38;;;13.85;100.00
21129;BME280;10722;51.910;8.352;2023-08-30T00:31:44;100136.16;;;13.94;100.00
21129;BME280;10722;51.910;8.352;2023-08-30T00:34:29;100131.03;;;13.84;100.00
21129;BME280;10722;51.910;8.352;2023-08-30T00:37:14;100136.22;;;13.84;100.00
21129;BME280;10722;51.910;8.352;2023-08-30T00:39:59;100130.19;;;13.81;100.00
21129;BME280;10722;51.910;8.352;2023-08-30T00:42:44;100122.38;;;13.85;100.00
21129;BME280;10722;51.910;8.352;2023-08-30T00:45:29;100131.03;;;13.86;100.00
21129;BME280;10722;51.910;8.352;2023-08-30T00:48:15;100123.25;;;13.80;100.00
21129;BME280;10722;51.910;8.352;2023-08-30T00:51:00;100128.41;;;13.84;100.00
21129;BME280;10722;51.910;8.352;2023-08-30T00:53:45;100123.25;;;13.83;100.00
21129;BME280;10722;51.910;8.352;2023-08-30T00:56:30;100126.72;;;13.76;100.00
21129;BME280;10722;51.910;8.352;2023-08-30T00:59:16;100115.50;;;13.67;100.00
21129;BME280;10722;51.910;8.352;2023-08-30T01:02:01;100108.59;;;13.63;100.00
21129;BME280;10722;51.910;8.352;2023-08-30T01:04:47;100113.81;;;13.62;100.00
21129;BME280;10722;51.910;8.352;2023-08-30T01:07:32;100115.56;;;13.55;100.00
21129;BME280;10722;51.910;8.352;2023-08-30T01:10:18;100112.06;;;13.59;100.00
21129;BME280;10722;51.910;8.352;2023-08-30T01:13:09;100115.56;;;13.58;100.00
21129;BME280;10722;51.910;8.352;2023-08-30T01:15:55;100106.84;;;13.70;100.00
21129;BME280;10722;51.910;8.352;2023-08-30T01:18:40;100106.84;;;13.70;100.00
21129;BME280;10722;51.910;8.352;2023-08-30T01:21:44;100098.22;;;13.59;100.00
21129;BME280;10722;51.910;8.352;2023-08-30T01:25:08;100112.09;;;13.53;100.00
21129;BME280;10722;51.910;8.352;2023-08-30T01:27:47;100102.59;;;13.52;100.00
21129;BME280;10722;51.910;8.352;2023-08-30T01:30:36;100110.34;;;13.63;100.00
21129;BME280;10722;51.910;8.352;2023-08-30T01:33:24;100099.94;;;13.60;100.00
21129;BME280;10722;51.910;8.352;2023-08-30T01:36:09;100111.16;;;13.71;100.00
21129;BME280;10722;51.910;8.352;2023-08-30T01:38:56;100107.72;;;13.69;100.00
21129;BME280;10722;51.910;8.352;2023-08-30T01:41:43;100092.25;;;13.46;100.00
21129;BME280;10722;51.910;8.352;2023-08-30T01:44:30;100089.66;;;13.41;100.00
21129;BME280;10722;51.910;8.352;2023-08-30T01:47:16;100091.34;;;13.49;100.00
21129;BME280;10722;51.910;8.352;2023-08-30T01:50:01;100095.66;;;13.57;100.00
21129;BME280;10722;51.910;8.352;2023-08-30T01:52:47;100096.47;;;13.62;100.00
21129;BME280;10722;51.910;8.352;2023-08-30T01:55:33;100092.13;;;13.66;100.00
21129;BME280;10722;51.910;8.352;2023-08-30T01:58:20;100103.38;;;13.68;100.00
21129;BME280;10722;51.910;8.352;2023-08-30T02:01:05;100099.13;;;13.53;100.00
21129;BME280;10722;51.910;8.352;2023-08-30T02:03:49;100092.13;;;13.60;100.00
21129;BME280;10722;51.910;8.352;2023-08-30T02:12:39;100085.22;;;13.60;100.00
21129;BME280;10722;51.910;8.352;2023-08-30T02:15:25;100082.59;;;13.62;100.00
21129;BME280;10722;51.910;8.352;2023-08-30T02:18:12;100082.66;;;13.56;100.00
21129;BME280;10722;51.910;8.352;2023-08-30T02:20:57;100080.94;;;13.55;100.00
21129;BME280;10722;51.910;8.352;2023-08-30T02:23:42;100078.34;;;13.49;100.00
21129;BME280;10722;51.910;8.352;2023-08-30T02:26:27;100082.72;;;13.43;100.00
21129;BME280;10722;51.910;8.352;2023-08-30T02:29:12;100091.34;;;13.49;100.00
21129;BME280;10722;51.910;8.352;2023-08-30T02:31:57;100089.56;;;13.57;100.00
21129;BME280;10722;51.910;8.352;2023-08-30T02:34:41;100093.03;;;13.56;100.00
21129;BME280;10722;51.910;8.352;2023-08-30T02:37:26;100071.41;;;13.51;100.00
21129;BME280;10722;51.910;8.352;2023-08-30T02:40:11;100080.13;;;13.39;100.00
21129;BME280;10722;51.910;8.352;2023-08-30T02:42:56;100081.88;;;13.31;100.00
21129;BME280;10722;51.910;8.352;2023-08-30T02:45:41;100086.25;;;13.27;100.00
21129;BME280;10722;51.910;8.352;2023-08-30T02:48:26;100086.25;;;13.27;100.00
21129;BME280;10722;51.910;8.352;2023-08-30T02:51:11;100095.78;;;13.27;100.00
21129;BME280;10722;51.910;8.352;2023-08-30T02:53:56;100091.41;;;13.24;100.00
21129;BME280;10722;51.910;8.352;2023-08-30T02:56:42;100091.41;;;13.22;100.00
21129;BME280;10722;51.910;8.352;2023-08-30T02:59:27;100094.00;;;13.24;100.00
21129;BME280;10722;51.910;8.352;2023-08-30T03:02:12;100088.81;;;13.29;100.00
21129;BME280;10722;51.910;8.352;2023-08-30T03:04:57;100089.69;;;13.20;100.00
21129;BME280;10722;51.910;8.352;2023-08-30T03:07:41;100085.38;;;13.23;100.00
21129;BME280;10722;51.910;8.352;2023-08-30T03:10:26;100087.09;;;13.21;100.00
21129;BME280;10722;51.910;8.352;2023-08-30T03:13:11;100088.84;;;13.21;100.00
21129;BME280;10722;51.910;8.352;2023-08-30T03:15:56;100094.03;;;13.21;100.00
21129;BME280;10722;51.910;8.352;2023-08-30T03:18:42;100084.59;;;12.95;100.00
21129;BME280;10722;51.910;8.352;2023-08-30T03:21:27;100088.00;;;12.97;100.00
21129;BME280;10722;51.910;8.352;2023-08-30T03:24:12;100088.06;;;12.85;100.00
21129;BME280;10722;51.910;8.352;2023-08-30T03:26:57;100094.97;;;12.83;100.00
21129;BME280;10722;51.910;8.352;2023-08-30T03:29:42;100094.06;;;12.95;100.00
21129;BME280;10722;51.910;8.352;2023-08-30T03:32:27;100093.22;;;12.91;100.00
21129;BME280;10722;51.910;8.352;2023-08-30T03:35:12;100090.66;;;12.85;100.00
21129;BME280;10722;51.910;8.352;2023-08-30T03:37:56;100088.06;;;12.76;100.00
21129;BME280;10722;51.910;8.352;2023-08-30T03:40:42;100083.72;;;12.79;100.00
21129;BME280;10722;51.910;8.352;2023-08-30T03:43:27;100076.81;;;12.78;100.00
21129;BME280;10722;51.910;8.352;2023-08-30T03:46:12;100084.59;;;12.72;100.00
21129;BME280;10722;51.910;8.352;2023-08-30T03:48:57;100074.22;;;12.77;100.00
21129;BME280;10722;51.910;8.352;2023-08-30T03:51:42;100079.44;;;12.71;100.00
21129;BME280;10722;51.910;8.352;2023-08-30T03:54:27;100081.13;;;12.78;100.00
21129;BME280;10722;51.910;8.352;2023-08-30T03:57:12;100078.56;;;12.76;100.00
21129;BME280;10722;51.910;8.352;2023-08-30T03:59:57;100083.69;;;12.99;100.00
21129;BME280;10722;51.910;8.352;2023-08-30T04:02:42;100078.53;;;12.90;100.00
21129;BME280;10722;51.910;8.352;2023-08-30T04:05:26;100079.38;;;13.01;100.00
21129;BME280;10722;51.910;8.352;2023-08-30T04:08:13;100073.34;;;12.90;100.00
21129;BME280;10722;51.910;8.352;2023-08-30T04:10:58;100082.84;;;12.85;100.00
21129;BME280;10722;51.910;8.352;2023-08-30T04:13:44;100070.78;;;12.66;100.00
21129;BME280;10722;51.910;8.352;2023-08-30T04:16:29;100066.47;;;12.54;100.00
21129;BME280;10722;51.910;8.352;2023-08-30T04:19:14;100064.72;;;12.57;100.00
21129;BME280;10722;51.910;8.352;2023-08-30T04:21:59;100056.97;;;12.56;100.00
21129;BME280;10722;51.910;8.352;2023-08-30T04:24:44;100052.59;;;12.61;100.00
21129;BME280;10722;51.910;8.352;2023-08-30T04:27:29;100045.69;;;12.63;100.00
21129;BME280;10722;51.910;8.352;2023-08-30T04:30:16;100050.91;;;12.65;100.00
21129;BME280;10722;51.910;8.352;2023-08-30T04:33:01;100037.06;;;12.64;100.00
21129;BME280;10722;51.910;8.352;2023-08-30T04:35:53;100053.44;;;12.83;100.00
21129;BME280;10722;51.910;8.352;2023-08-30T04:38:39;100037.84;;;12.92;100.00
21129;BME280;10722;51.910;8.352;2023-08-30T04:41:40;100037.88;;;12.80;100.00
21129;BME280;10722;51.910;8.352;2023-08-30T04:44:25;100042.22;;;12.76;100.00
21129;BME280;10722;51.910;8.352;2023-08-30T04:47:10;100046.53;;;12.82;100.00
21129;BME280;10722;51.910;8.352;2023-08-30T04:49:55;100044.81;;;12.72;100.00
21129;BME280;10722;51.910;8.352;2023-08-30T04:52:40;100046.53;;;12.82;100.00
21129;BME280;10722;51.910;8.352;2023-08-30T04:55:28;100054.31;;;12.85;100.00
21129;BME280;10722;51.910;8.352;2023-08-30T04:58:13;100065.50;;;12.99;100.00
21129;BME280;10722;51.910;8.352;2023-08-30T05:00:58;100048.22;;;12.94;100.00
21129;BME280;10722;51.910;8.352;2023-08-30T05:03:43;100049.13;;;12.87;100.00
21129;BME280;10722;51.910;8.352;2023-08-30T05:06:29;100049.94;;;12.96;100.00
21129;BME280;10722;51.910;8.352;2023-08-30T05:09:14;100044.75;;;12.93;100.00
21129;BME280;10722;51.910;8.352;2023-08-30T05:11:58;100044.75;;;12.96;100.00
21129;BME280;10722;51.910;8.352;2023-08-30T05:14:43;100056.00;;;12.89;100.00
21129;BME280;10722;51.910;8.352;2023-08-30T05:17:28;100062.09;;;12.93;100.00
21129;BME280;10722;51.910;8.352;2023-08-30T05:20:14;100057.69;;;13.06;100.00
21129;BME280;10722;51.910;8.352;2023-08-30T05:22:59;100056.84;;;13.00;100.00
21129;BME280;10722;51.910;8.352;2023-08-30T05:25:43;100058.59;;;12.98;100.00
21129;BME280;10722;51.910;8.352;2023-08-30T05:28:28;100055.97;;;13.09;100.00
21129;BME280;10722;51.910;8.352;2023-08-30T05:31:13;100047.31;;;13.10;100.00
21129;BME280;10722;51.910;8.352;2023-08-30T05:33:58;100053.34;;;13.11;100.00
21129;BME280;10722;51.910;8.352;2023-08-30T05:36:43;100051.63;;;13.13;100.00
21129;BME280;10722;51.910;8.352;2023-08-30T05:39:28;100043.00;;;13.08;100.00
21129;BME280;10722;51.910;8.352;2023-08-30T05:42:13;100044.69;;;13.13;100.00
21129;BME280;10722;51.910;8.352;2023-08-30T05:44:58;100042.97;;;13.11;100.00
21129;BME280;10722;51.910;8.352;2023-08-30T05:47:43;100031.69;;;13.15;100.00
21129;BME280;10722;51.910;8.352;2023-08-30T05:50:28;100035.16;;;13.17;100.00
21129;BME280;10722;51.910;8.352;2023-08-30T05:53:13;100030.78;;;13.25;100.00
21129;BME280;10722;51.910;8.352;2023-08-30T05:55:58;100031.66;;;13.24;100.00
21129;BME280;10722;51.910;8.352;2023-08-30T05:58:43;100025.63;;;13.19;100.00
21129;BME280;10722;51.910;8.352;2023-08-30T06:01:28;100027.31;;;13.23;100.00
21129;BME280;10722;51.910;8.352;2023-08-30T06:04:13;100028.22;;;13.23;100.00
21129;BME280;10722;51.910;8.352;2023-08-30T06:06:59;100013.47;;;13.33;100.00
21129;BME280;10722;51.910;8.352;2023-08-30T06:09:44;100013.38;;;13.49;100.00
21129;BME280;10722;51.910;8.352;2023-08-30T06:12:29;100012.53;;;13.50;100.00
21129;BME280;10722;51.910;8.352;2023-08-30T06:15:14;100006.31;;;13.72;100.00
21129;BME280;10722;51.910;8.352;2023-08-30T06:17:59;100002.00;;;13.70;100.00
21129;BME280;10722;51.910;8.352;2023-08-30T06:20:44;99996.81;;;13.65;100.00
21129;BME280;10722;51.910;8.352;2023-08-30T06:23:29;99992.47;;;13.72;100.00
21129;BME280;10722;51.910;8.352;2023-08-30T06:26:14;100003.63;;;13.84;100.00
21129;BME280;10722;51.910;8.352;2023-08-30T06:28:59;100009.50;;;14.09;100.00
21129;BME280;10722;51.910;8.352;2023-08-30T06:31:49;99999.94;;;14.10;100.00
21129;BME280;10722;51.910;8.352;2023-08-30T06:34:34;99996.53;;;14.02;100.00
21129;BME280;10722;51.910;8.352;2023-08-30T06:37:19;99989.72;;;13.92;100.00
21129;BME280;10722;51.910;8.352;2023-08-30T06:40:05;99986.31;;;13.83;100.00
21129;BME280;10722;51.910;8.352;2023-08-30T06:42:49;99981.94;;;13.87;100.00
21129;BME280;10722;51.910;8.352;2023-08-30T06:45:34;99984.44;;;13.98;100.00
21129;BME280;10722;51.910;8.352;2023-08-30T06:48:19;99980.97;;;13.99;100.00
21129;BME280;10722;51.910;8.352;2023-08-30T06:51:04;99983.44;;;14.14;100.00
21129;BME280;10722;51.910;8.352;2023-08-30T06:53:50;99973.91;;;14.15;100.00
21129;BME280;10722;51.910;8.352;2023-08-30T06:56:35;99982.50;;;14.21;100.00
21129;BME280;10722;51.910;8.352;2023-08-30T06:59:20;99977.25;;;14.27;100.00
21129;BME280;10722;51.910;8.352;2023-08-30T07:02:05;99979.81;;;14.33;100.00
21129;BME280;10722;51.910;8.352;2023-08-30T07:04:50;99966.72;;;14.38;100.00
21129;BME280;10722;51.910;8.352;2023-08-30T07:07:35;99968.44;;;14.42;100.00
21129;BME280;10722;51.910;8.352;2023-08-30T07:10:20;99967.44;;;14.57;100.00
21129;BME280;10722;51.910;8.352;2023-08-30T07:13:05;99954.38;;;14.60;100.00
21129;BME280;10722;51.910;8.352;2023-08-30T07:15:50;99951.59;;;14.78;100.00
21129;BME280;10722;51.910;8.352;2023-08-30T07:18:35;99945.09;;;15.10;100.00
21129;BME280;10722;51.910;8.352;2023-08-30T07:21:21;99944.28;;;15.07;100.00
21129;BME280;10722;51.910;8.352;2023-08-30T07:24:07;99941.56;;;15.16;100.00
21129;BME280;10722;51.910;8.352;2023-08-30T07:26:52;99926.44;;;15.41;100.00
21129;BME280;10722;51.910;8.352;2023-08-30T07:29:37;99924.22;;;15.13;100.00
21129;BME280;10722;51.910;8.352;2023-08-30T07:32:22;99918.53;;;15.45;100.00
21129;BME280;10722;51.910;8.352;2023-08-30T07:35:07;99918.00;;;15.81;100.00
21129;BME280;10722;51.910;8.352;2023-08-30T07:37:52;99908.13;;;15.98;100.00
21129;BME280;10722;51.910;8.352;2023-08-30T07:40:37;99897.66;;;16.01;100.00
21129;BME280;10722;51.910;8.352;2023-08-30T07:43:22;99886.44;;;15.96;100.00
21129;BME280;10722;51.910;8.352;2023-08-30T07:46:07;99886.22;;;16.53;100.00
21129;BME280;10722;51.910;8.352;2023-08-30T07:48:53;99861.00;;;16.52;100.00
21129;BME280;10722;51.910;8.352;2023-08-30T07:51:38;99852.09;;;16.61;99.70
21129;BME280;10722;51.910;8.352;2023-08-30T07:54:23;99848.19;;;16.40;99.67
21129;BME280;10722;51.910;8.352;2023-08-30T07:57:08;99863.38;;;16.65;99.98
21129;BME280;10722;51.910;8.352;2023-08-30T07:59:53;99857.91;;;16.77;98.56
21129;BME280;10722;51.910;8.352;2023-08-30T08:02:39;99840.31;;;16.84;97.35
21129;BME280;10722;51.910;8.352;2023-08-30T08:05:24;99833.31;;;17.23;95.60
21129;BME280;10722;51.910;8.352;2023-08-30T08:08:09;99824.84;;;17.13;95.02
21129;BME280;10722;51.910;8.352;2023-08-30T08:10:55;99827.22;;;17.60;94.21
21129;BME280;10722;51.910;8.352;2023-08-30T08:13:40;99812.88;;;17.75;92.55
21129;BME280;10722;51.910;8.352;2023-08-30T08:16:25;99804.38;;;17.66;91.62
21129;BME280;10722;51.910;8.352;2023-08-30T08:19:10;99788.19;;;17.85;90.32
21129;BME280;10722;51.910;8.352;2023-08-30T08:21:55;99789.94;;;17.86;90.17
21129;BME280;10722;51.910;8.352;2023-08-30T08:24:40;99818.56;;;17.56;90.67
21129;BME280;10722;51.910;8.352;2023-08-30T08:27:25;99814.63;;;17.74;89.69
21129;BME280;10722;51.910;8.352;2023-08-30T08:30:11;99817.63;;;17.59;90.21
21129;BME280;10722;51.910;8.352;2023-08-30T08:32:57;99813.72;;;17.75;89.44
21129;BME280;10722;51.910;8.352;2023-08-30T08:35:42;99817.28;;;17.73;89.51
21129;BME280;10722;51.910;8.352;2023-08-30T08:38:27;99778.84;;;18.07;87.71
21129;BME280;10722;51.910;8.352;2023-08-30T08:41:14;99807.91;;;17.64;88.38
21129;BME280;10722;51.910;8.352;2023-08-30T08:44:00;99820.44;;;17.51;88.99
21129;BME280;10722;51.910;8.352;2023-08-30T08:46:46;99795.78;;;17.61;87.54
21129;BME280;10722;51.910;8.352;2023-08-30T08:49:31;99815.06;;;17.57;88.59
21129;BME280;10722;51.910;8.352;2023-08-30T08:52:16;99817.13;;;17.79;87.87
21129;BME280;10722;51.910;8.352;2023-08-30T08:55:17;99793.19;;;17.94;86.56
21129;BME280;10722;51.910;8.352;2023-08-30T08:58:03;99759.78;;;18.33;84.70
21129;BME280;10722;51.910;8.352;2023-08-30T09:00:49;99720.56;;;18.60;82.30
21129;BME280;10722;51.910;8.352;2023-08-30T09:03:34;99711.41;;;18.73;81.90
21129;BME280;10722;51.910;8.352;2023-08-30T09:06:20;99707.06;;;18.74;81.71
21129;BME280;10722;51.910;8.352;2023-08-30T09:09:07;99704.72;;;18.63;81.29
21129;BME280;10722;51.910;8.352;2023-08-30T09:11:53;99697.31;;;18.77;80.69
21129;BME280;10722;51.910;8.352;2023-08-30T09:14:38;99698.63;;;19.17;80.13
21129;BME280;10722;51.910;8.352;2023-08-30T09:17:35;99641.75;;;19.19;76.92
21129;BME280;10722;51.910;8.352;2023-08-30T09:20:20;99599.31;;;19.08;75.06
21129;BME280;10722;51.910;8.352;2023-08-30T09:23:16;99660.03;;;18.96;77.10
21129;BME280;10722;51.910;8.352;2023-08-30T09:26:02;99686.19;;;18.97;77.11
21129;BME280;10722;51.910;8.352;2023-08-30T09:28:47;99648.03;;;18.62;75.79
21129;BME280;10722;51.910;8.352;2023-08-30T09:31:37;99694.66;;;18.79;76.97
21129;BME280;10722;51.910;8.352;2023-08-30T09:34:26;99699.66;;;18.58;77.55
21129;BME280;10722;51.910;8.352;2023-08-30T09:37:22;99676.84;;;18.62;76.27
21129;BME280;10722;51.910;8.352;2023-08-30T09:40:08;99648.81;;;18.37;75.08
21129;BME280;10722;51.910;8.352;2023-08-30T09:42:53;99636.34;;;18.44;73.22
21129;BME280;10722;51.910;8.352;2023-08-30T09:45:57;99694.94;;;18.70;74.64
21129;BME280;10722;51.910;8.352;2023-08-30T09:48:42;99689.41;;;19.06;74.32
21129;BME280;10722;51.910;8.352;2023-08-30T09:51:27;99709.97;;;19.18;74.93
21129;BME280;10722;51.910;8.352;2023-08-30T09:54:17;99649.22;;;19.05;72.59
21129;BME280;10722;51.910;8.352;2023-08-30T09:57:23;99645.88;;;19.01;72.06
21129;BME280;10722;51.910;8.352;2023-08-30T10:00:09;99592.09;;;18.63;69.76
21129;BME280;10722;51.910;8.352;2023-08-30T10:02:55;99614.06;;;18.59;70.46
21129;BME280;10722;51.910;8.352;2023-08-30T10:06:01;99587.38;;;18.48;68.98
21129;BME280;10722;51.910;8.352;2023-08-30T10:08:47;99620.72;;;18.43;69.81
21129;BME280;10722;51.910;8.352;2023-08-30T10:11:35;99624.84;;;18.50;70.31
21129;BME280;10722;51.910;8.352;2023-08-30T10:14:20;99644.16;;;18.47;70.88
21129;BME280;10722;51.910;8.352;2023-08-30T10:17:08;99655.56;;;18.45;71.36
21129;BME280;10722;51.910;8.352;2023-08-30T10:19:56;99631.19;;;18.43;70.19
21129;BME280;10722;51.910;8.352;2023-08-30T10:22:42;99645.25;;;18.38;70.41
21129;BME280;10722;51.910;8.352;2023-08-30T10:25:31;99617.59;;;18.31;69.77
21129;BME280;10722;51.910;8.352;2023-08-30T10:28:19;99607.00;;;18.34;68.89
21129;BME280;10722;51.910;8.352;2023-08-30T10:31:07;99635.81;;;18.34;69.63
21129;BME280;10722;51.910;8.352;2023-08-30T10:33:53;99618.63;;;18.26;69.11
21129;BME280;10722;51.910;8.352;2023-08-30T10:36:38;99641.16;;;18.31;69.78
21129;BME280;10722;51.910;8.352;2023-08-30T10:40:01;99629.25;;;18.21;69.65
21129;BME280;10722;51.910;8.352;2023-08-30T10:42:39;99632.22;;;18.10;70.02
21129;BME280;10722;51.910;8.352;2023-08-30T10:45:24;99623.88;;;17.98;69.15
21129;BME280;10722;51.910;8.352;2023-08-30T10:48:10;99632.34;;;18.06;69.29
21129;BME280;10722;51.910;8.352;2023-08-30T10:50:56;99632.16;;;18.12;68.99
21129;BME280;10722;51.910;8.352;2023-08-30T10:53:43;99634.38;;;17.96;69.08
21129;BME280;10722;51.910;8.352;2023-08-30T10:56:31;99665.72;;;17.98;70.13
21129;BME280;10722;51.910;8.352;2023-08-30T10:59:18;99661.97;;;18.06;70.18
21129;BME280;10722;51.910;8.352;2023-08-30T11:02:04;99660.41;;;18.01;70.33
21129;BME280;10722;51.910;8.352;2023-08-30T11:04:49;99671.72;;;18.01;70.95
21129;BME280;10722;51.910;8.352;2023-08-30T11:07:35;99667.44;;;17.99;70.71
21129;BME280;10722;51.910;8.352;2023-08-30T11:10:21;99660.00;;;18.14;70.17
21129;BME280;10722;51.910;8.352;2023-08-30T11:13:06;99643.25;;;18.20;69.74
21129;BME280;10722;51.910;8.352;2023-08-30T11:15:51;99643.75;;;18.31;69.96
21129;BME280;10722;51.910;8.352;2023-08-30T11:18:37;99645.97;;;18.44;69.76
21129;BME280;10722;51.910;8.352;2023-08-30T11:21:22;99622.31;;;18.47;68.71
21129;BME280;10722;51.910;8.352;2023-08-30T11:24:07;99610.09;;;18.47;67.75
21129;BME280;10722;51.910;8.352;2023-08-30T11:26:54;99584.59;;;18.52;67.26
21129;BME280;10722;51.910;8.352;2023-08-30T11:29:39;99578.56;;;18.50;66.43
21129;BME280;10722;51.910;8.352;2023-08-30T11:32:24;99611.50;;;18.57;67.77
21129;BME280;10722;51.910;8.352;2023-08-30T11:35:09;99574.00;;;18.55;66.37
21129;BME280;10722;51.910;8.352;2023-08-30T11:37:55;99585.88;;;18.67;66.66
21129;BME280;10722;51.910;8.352;2023-08-30T11:40:40;99574.47;;;18.68;66.49
21129;BME280;10722;51.910;8.352;2023-08-30T11:43:25;99563.22;;;18.40;66.43
21129;BME280;10722;51.910;8.352;2023-08-30T11:46:10;99576.00;;;18.49;66.44
21129;BME280;10722;51.910;8.352;2023-08-30T11:48:55;99580.28;;;18.51;66.81
21129;BME280;10722;51.910;8.352;2023-08-30T11:51:40;99583.25;;;18.41;67.16
21129;BME280;10722;51.910;8.352;2023-08-30T11:54:26;99590.34;;;18.37;67.02
21129;BME280;10722;51.910;8.352;2023-08-30T11:57:12;99566.25;;;18.27;66.47
21129;BME280;10722;51.910;8.352;2023-08-30T12:00:07;99589.41;;;18.40;67.03
21129;BME280;10722;51.910;8.352;2023-08-30T12:02:52;99632.38;;;18.32;69.15
21129;BME280;10722;51.910;8.352;2023-08-30T12:05:46;99636.00;;;18.28;69.33
21129;BME280;10722;51.910;8.352;2023-08-30T12:08:32;99676.78;;;18.07;71.93
21129;BME280;10722;51.910;8.352;2023-08-30T12:11:19;99673.78;;;17.91;72.18
21129;BME280;10722;51.910;8.352;2023-08-30T12:14:04;99668.56;;;17.90;72.23
21129;BME280;10722;51.910;8.352;2023-08-30T12:16:49;99693.38;;;17.75;73.83
21129;BME280;10722;51.910;8.352;2023-08-30T12:19:34;99719.19;;;17.56;75.31
21129;BME280;10722;51.910;8.352;2023-08-30T12:22:19;99720.28;;;17.47;75.18
21129;BME280;10722;51.910;8.352;2023-08-30T12:25:15;99741.91;;;17.21;76.60
21129;BME280;10722;51.910;8.352;2023-08-30T12:28:00;99748.22;;;17.13;77.77
21129;BME280;10722;51.910;8.352;2023-08-30T12:30:45;99763.38;;;16.98;78.99
21129;BME280;10722;51.910;8.352;2023-08-30T12:33:30;99769.63;;;16.91;79.37
21129;BME280;10722;51.910;8.352;2023-08-30T12:36:16;99767.84;;;16.93;80.16
21129;BME280;10722;51.910;8.352;2023-08-30T12:39:00;99768.69;;;16.95;80.93
21129;BME280;10722;51.910;8.352;2023-08-30T12:41:45;99781.34;;;17.11;82.85
21129;BME280;10722;51.910;8.352;2023-08-30T12:44:31;99782.03;;;17.19;83.74
21129;BME280;10722;51.910;8.352;2023-08-30T12:47:16;99790.56;;;17.25;84.53
21129;BME280;10722;51.910;8.352;2023-08-30T12:50:01;99785.22;;;17.32;84.65
21129;BME280;10722;51.910;8.352;2023-08-30T12:52:46;99778.41;;;17.24;84.20
21129;BME280;10722;51.910;8.352;2023-08-30T12:55:32;99786.41;;;17.18;85.46
21129;BME280;10722;51.910;8.352;2023-08-30T12:58:17;99787.66;;;17.03;85.91
21129;BME280;10722;51.910;8.352;2023-08-30T13:01:02;99812.25;;;16.53;88.39
21129;BME280;10722;51.910;8.352;2023-08-30T13:03:47;99812.91;;;16.63;89.73
21129;BME280;10722;51.910;8.352;2023-08-30T13:06:33;99815.44;;;16.66;90.68
21129;BME280;10722;51.910;8.352;2023-08-30T13:09:18;99823.38;;;16.61;92.00
21129;BME280;10722;51.910;8.352;2023-08-30T13:12:03;99826.81;;;16.63;93.88
21129;BME280;10722;51.910;8.352;2023-08-30T13:14:48;99837.75;;;16.42;96.27
21129;BME280;10722;51.910;8.352;2023-08-30T13:17:33;99833.88;;;16.16;98.06
21129;BME280;10722;51.910;8.352;2023-08-30T13:20:18;99838.72;;;16.36;100.00
21129;BME280;10722;51.910;8.352;2023-08-30T13:23:03;99846.56;;;16.36;100.00
21129;BME280;10722;51.910;8.352;2023-08-30T13:25:48;99840.50;;;15.89;100.00
21129;BME280;10722;51.910;8.352;2023-08-30T13:28:33;99846.44;;;15.46;100.00
21129;BME280;10722;51.910;8.352;2023-08-30T13:31:18;99849.78;;;15.51;100.00
21129;BME280;10722;51.910;8.352;2023-08-30T13:34:03;99853.13;;;15.59;100.00
21129;BME280;10722;51.910;8.352;2023-08-30T13:36:49;99856.75;;;15.52;100.00
21129;BME280;10722;51.910;8.352;2023-08-30T13:39:34;99857.59;;;14.97;100.00
21129;BME280;10722;51.910;8.352;2023-08-30T13:42:19;99855.91;;;14.93;100.00
21129;BME280;10722;51.910;8.352;2023-08-30T13:45:05;99853.13;;;15.05;100.00
21129;BME280;10722;51.910;8.352;2023-08-30T13:47:50;99853.47;;;14.80;100.00
21129;BME280;10722;51.910;8.352;2023-08-30T13:50:41;99852.78;;;14.66;100.00
21129;BME280;10722;51.910;8.352;2023-08-30T13:53:26;99851.94;;;14.66;100.00
21129;BME280;10722;51.910;8.352;2023-08-30T13:56:11;99856.28;;;14.65;100.00
21129;BME280;10722;51.910;8.352;2023-08-30T13:58:56;99844.25;;;14.55;100.00
21129;BME280;10722;51.910;8.352;2023-08-30T14:01:41;99852.78;;;14.68;100.00
21129;BME280;10722;51.910;8.352;2023-08-30T14:04:26;99840.56;;;14.71;100.00
21129;BME280;10722;51.910;8.352;2023-08-30T14:07:11;99845.69;;;14.79;100.00
21129;BME280;10722;51.910;8.352;2023-08-30T14:09:56;99838.72;;;14.79;100.00
21129;BME280;10722;51.910;8.352;2023-08-30T14:12:41;99839.56;;;14.82;100.00
21129;BME280;10722;51.910;8.352;2023-08-30T14:15:26;99841.38;;;14.76;100.00
21129;BME280;10722;51.910;8.352;2023-08-30T14:18:12;99839.66;;;14.75;100.00
21129;BME280;10722;51.910;8.352;2023-08-30T14:20:59;99829.16;;;14.82;100.00
21129;BME280;10722;51.910;8.352;2023-08-30T14:23:45;99831.59;;;14.94;100.00
21129;BME280;10722;51.910;8.352;2023-08-30T14:26:30;99827.19;;;14.97;100.00
21129;BME280;10722;51.910;8.352;2023-08-30T14:29:20;99826.38;;;14.94;100.00
21129;BME280;10722;51.910;8.352;2023-08-30T14:32:05;99832.44;;;14.94;100.00
21129;BME280;10722;51.910;8.352;2023-08-30T14:34:50;99828.94;;;14.97;100.00